Pompton Lakes, NJ

10:23 PM EDT on September 14, 2014 (GMT -0400)
Teterboro | Change Station
CLOSE
Current Station
Airport
Location: Teterboro,
Elevation: 7 ft
Nearby Weather Stations

Elev 7 ft 40.86 °N, 74.06 °W | Updated 32 minutes ago

Clear
Clear
62 °F
Feels Like 62 °F
N
0
Wind Variable Wind from North

Today
High -- | Low -- °F
--% Chance of Precip.
Yesterday
High -- | Low -- °F
Precip. -- in
6:36 AM 7:08 PM
Waning Gibbous, 60% visible
Pressure 30.18 in
Visibility 10.0 miles
Clouds Clear
Dew Point 44 °F
Humidity 52%
Rainfall 0.00 in
Snow Depth Not available.
UV 0 out of 12
Pollen 4.20 out of 12
Air Quality Not available.
Flu Activity Not available.
METAR KTEB 150151Z 00000KT 10SM CLR 17/07 A3018 RMK AO2 SLP220 T01670067 $

More Conditions Fewer Conditions

Pressure 30.18 in
Visibility 10.0 miles
Clouds Clear
Dew Point 44 °F
Humidity 52%
Rainfall 0.00 in
Snow Depth Not available.
UV 0 out of 12
Pollen 4.20 out of 12
Air Quality Not available.
Flu Activity Not available.
METAR KTEB 150151Z 00000KT 10SM CLR 17/07 A3018 RMK AO2 SLP220 T01670067 $

More Conditions Fewer Conditions

10-Day Weather Forecast

Almanac

Astronomy

Sep. 14, 2014 Rise Set
Actual Time 6:36 AM EDT 7:08 PM EDT
Civil Twilight 6:09 AM EDT 7:35 PM EDT
Nautical Twilight 5:36 AM EDT 8:08 PM EDT
Astronomical Twilight 5:02 AM EDT 8:41 PM EDT
Moon 10:55 PM EDT (9/14) 12:43 PM EDT (9/14)
Length of Visible Light 13h 26m
Length of Day
12h 31m
Tomorrow will be 2m 41s shorter.
Waning Gibbous, 60% of the Moon is Illuminated
Today
Waning Gibbous
Sep 15
Last Quarter
Sep 24
New
Oct 1
First Quarter
Oct 8
Full

Today's Extremes

State Highs State Lows

Community

WunderPhotos

Upload Photos

1,753,381 photos uploaded!

Nearby

Snow Depth

Station Depth Elevation
No new snow has been reported.

Earthquake Activity

City Distance Mag. Time & Date
No recent earthquake activity has been reported nearby.
Minimum magnitude displayed is 2.5.

Coastal Water Temperatures

Place Temperature
Sandy Hook, NJ 71.1 °F
The Battery, NY 72.0 °F
Bergen Point West Reach, NJ 72.0 °F

Nearby Weather Stations